sensor_id;sensor_type;location;lat;lon;timestamp;pressure;altitude;pressure_sealevel;temperature;humidity
77299;BME280;66361;52.034;20.656;2023-04-15T00:00:36;98976.72;;;10.38;82.85
77299;BME280;66361;52.034;20.656;2023-04-15T00:04:48;98971.09;;;10.32;82.81
77299;BME280;66361;52.034;20.656;2023-04-15T00:08:52;98976.38;;;10.32;82.24
77299;BME280;66361;52.034;20.656;2023-04-15T00:12:57;98972.41;;;10.37;81.02
77299;BME280;66361;52.034;20.656;2023-04-15T00:17:01;98970.59;;;10.38;81.23
77299;BME280;66361;52.034;20.656;2023-04-15T00:21:05;98973.97;;;10.40;81.12
77299;BME280;66361;52.034;20.656;2023-04-15T00:25:09;98974.91;;;10.39;81.05
77299;BME280;66361;52.034;20.656;2023-04-15T00:29:12;98964.84;;;10.44;80.75
77299;BME280;66361;52.034;20.656;2023-04-15T00:33:15;98967.00;;;10.39;81.24
77299;BME280;66361;52.034;20.656;2023-04-15T00:37:18;98969.13;;;10.45;80.73
77299;BME280;66361;52.034;20.656;2023-04-15T00:41:22;98953.56;;;10.42;80.86
77299;BME280;66361;52.034;20.656;2023-04-15T00:45:28;98958.38;;;10.37;81.78
77299;BME280;66361;52.034;20.656;2023-04-15T00:49:34;98958.16;;;10.29;83.68
77299;BME280;66361;52.034;20.656;2023-04-15T00:53:41;98966.34;;;10.14;84.54
77299;BME280;66361;52.034;20.656;2023-04-15T00:57:49;98966.22;;;10.16;84.64
77299;BME280;66361;52.034;20.656;2023-04-15T01:01:52;98963.94;;;10.00;86.26
77299;BME280;66361;52.034;20.656;2023-04-15T01:05:56;98958.91;;;9.97;87.39
77299;BME280;66361;52.034;20.656;2023-04-15T01:10:05;98965.63;;;9.90;87.67
77299;BME280;66361;52.034;20.656;2023-04-15T01:14:15;98963.59;;;9.94;87.56
77299;BME280;66361;52.034;20.656;2023-04-15T01:18:18;98974.03;;;9.95;88.75
77299;BME280;66361;52.034;20.656;2023-04-15T01:22:24;98966.50;;;9.80;90.63
77299;BME280;66361;52.034;20.656;2023-04-15T01:26:29;98966.84;;;9.64;93.60
77299;BME280;66361;52.034;20.656;2023-04-15T01:30:33;98961.91;;;9.59;94.58
77299;BME280;66361;52.034;20.656;2023-04-15T01:34:36;98961.56;;;9.42;96.76
77299;BME280;66361;52.034;20.656;2023-04-15T01:38:39;98964.53;;;9.37;98.10
77299;BME280;66361;52.034;20.656;2023-04-15T01:42:44;98962.50;;;9.41;97.23
77299;BME280;66361;52.034;20.656;2023-04-15T01:46:47;98959.50;;;9.34;99.00
77299;BME280;66361;52.034;20.656;2023-04-15T01:50:51;98954.00;;;9.37;98.61
77299;BME280;66361;52.034;20.656;2023-04-15T01:54:54;98954.50;;;9.31;100.00
77299;BME280;66361;52.034;20.656;2023-04-15T01:58:58;98956.16;;;9.32;100.00
77299;BME280;66361;52.034;20.656;2023-04-15T02:03:03;98954.44;;;9.20;100.00
77299;BME280;66361;52.034;20.656;2023-04-15T02:07:07;98955.88;;;9.13;100.00
77299;BME280;66361;52.034;20.656;2023-04-15T02:11:09;98967.91;;;9.04;100.00
77299;BME280;66361;52.034;20.656;2023-04-15T02:15:14;98962.03;;;9.01;100.00
77299;BME280;66361;52.034;20.656;2023-04-15T02:19:17;98957.13;;;8.96;100.00
77299;BME280;66361;52.034;20.656;2023-04-15T02:23:20;98962.53;;;8.95;100.00
77299;BME280;66361;52.034;20.656;2023-04-15T02:27:22;98958.06;;;8.95;100.00
77299;BME280;66361;52.034;20.656;2023-04-15T02:31:27;98954.72;;;8.93;100.00
77299;BME280;66361;52.034;20.656;2023-04-15T02:35:30;98958.19;;;8.94;100.00
77299;BME280;66361;52.034;20.656;2023-04-15T02:39:34;98953.03;;;8.92;100.00
77299;BME280;66361;52.034;20.656;2023-04-15T02:43:37;98957.59;;;8.90;100.00
77299;BME280;66361;52.034;20.656;2023-04-15T02:47:42;98965.94;;;8.84;100.00
77299;BME280;66361;52.034;20.656;2023-04-15T02:51:46;98953.75;;;8.83;100.00
77299;BME280;66361;52.034;20.656;2023-04-15T02:55:50;98956.38;;;8.83;100.00
77299;BME280;66361;52.034;20.656;2023-04-15T02:59:53;98949.19;;;8.85;100.00
77299;BME280;66361;52.034;20.656;2023-04-15T03:03:57;98969.63;;;8.82;100.00
77299;BME280;66361;52.034;20.656;2023-04-15T03:08:01;98957.31;;;8.82;100.00
77299;BME280;66361;52.034;20.656;2023-04-15T03:12:04;98947.50;;;8.84;100.00
77299;BME280;66361;52.034;20.656;2023-04-15T03:16:07;98962.91;;;8.77;100.00
77299;BME280;66361;52.034;20.656;2023-04-15T03:20:12;98955.38;;;8.73;100.00
77299;BME280;66361;52.034;20.656;2023-04-15T03:24:16;98955.03;;;8.77;100.00
77299;BME280;66361;52.034;20.656;2023-04-15T03:28:21;98960.28;;;8.77;100.00
77299;BME280;66361;52.034;20.656;2023-04-15T03:32:24;98955.88;;;8.78;100.00
77299;BME280;66361;52.034;20.656;2023-04-15T03:36:30;98961.16;;;8.89;100.00
77299;BME280;66361;52.034;20.656;2023-04-15T03:40:36;98969.41;;;8.85;100.00
77299;BME280;66361;52.034;20.656;2023-04-15T03:44:39;98953.19;;;8.91;100.00
77299;BME280;66361;52.034;20.656;2023-04-15T03:48:42;98965.00;;;8.96;100.00
77299;BME280;66361;52.034;20.656;2023-04-15T03:52:46;98963.31;;;8.95;100.00
77299;BME280;66361;52.034;20.656;2023-04-15T03:56:51;98963.47;;;8.94;100.00
77299;BME280;66361;52.034;20.656;2023-04-15T04:00:54;98972.19;;;8.94;100.00
77299;BME280;66361;52.034;20.656;2023-04-15T04:04:57;98968.59;;;8.95;100.00
77299;BME280;66361;52.034;20.656;2023-04-15T04:09:02;98964.16;;;8.96;100.00
77299;BME280;66361;52.034;20.656;2023-04-15T04:13:05;98967.31;;;9.01;100.00
77299;BME280;66361;52.034;20.656;2023-04-15T04:17:08;98974.25;;;9.02;100.00
77299;BME280;66361;52.034;20.656;2023-04-15T04:21:11;98967.44;;;9.10;100.00
77299;BME280;66361;52.034;20.656;2023-04-15T04:25:16;98970.91;;;9.11;100.00
77299;BME280;66361;52.034;20.656;2023-04-15T04:29:19;98970.06;;;9.10;100.00
77299;BME280;66361;52.034;20.656;2023-04-15T04:33:22;98965.19;;;9.06;100.00
77299;BME280;66361;52.034;20.656;2023-04-15T04:37:25;98977.38;;;9.07;100.00
77299;BME280;66361;52.034;20.656;2023-04-15T04:41:30;98969.22;;;9.10;100.00
77299;BME280;66361;52.034;20.656;2023-04-15T04:45:33;98977.38;;;9.07;100.00
77299;BME280;66361;52.034;20.656;2023-04-15T04:49:36;98967.69;;;9.07;100.00
77299;BME280;66361;52.034;20.656;2023-04-15T04:53:39;98962.31;;;9.09;100.00
77299;BME280;66361;52.034;20.656;2023-04-15T04:57:45;98965.53;;;9.12;100.00
77299;BME280;66361;52.034;20.656;2023-04-15T05:01:48;98962.19;;;9.10;100.00
77299;BME280;66361;52.034;20.656;2023-04-15T05:05:52;98970.69;;;9.14;100.00
77299;BME280;66361;52.034;20.656;2023-04-15T05:09:54;98968.88;;;9.14;100.00
77299;BME280;66361;52.034;20.656;2023-04-15T05:13:59;98976.06;;;9.12;100.00
77299;BME280;66361;52.034;20.656;2023-04-15T05:18:02;98972.69;;;9.10;100.00
77299;BME280;66361;52.034;20.656;2023-04-15T05:22:09;98975.94;;;9.14;100.00
77299;BME280;66361;52.034;20.656;2023-04-15T05:26:14;98974.28;;;9.13;100.00
77299;BME280;66361;52.034;20.656;2023-04-15T05:30:19;98974.16;;;9.14;100.00
77299;BME280;66361;52.034;20.656;2023-04-15T05:34:23;98974.06;;;9.16;100.00
77299;BME280;66361;52.034;20.656;2023-04-15T05:38:25;98981.38;;;9.23;100.00
77299;BME280;66361;52.034;20.656;2023-04-15T05:42:28;98979.91;;;9.19;100.00
77299;BME280;66361;52.034;20.656;2023-04-15T05:46:33;98988.06;;;9.16;100.00
77299;BME280;66361;52.034;20.656;2023-04-15T05:50:36;98992.34;;;9.17;100.00
77299;BME280;66361;52.034;20.656;2023-04-15T05:54:39;98988.16;;;9.15;100.00
77299;BME280;66361;52.034;20.656;2023-04-15T05:58:41;98983.97;;;9.12;100.00
77299;BME280;66361;52.034;20.656;2023-04-15T06:02:46;98980.41;;;9.13;100.00
77299;BME280;66361;52.034;20.656;2023-04-15T06:06:49;98981.22;;;9.14;100.00
77299;BME280;66361;52.034;20.656;2023-04-15T06:10:52;98989.34;;;9.11;100.00
77299;BME280;66361;52.034;20.656;2023-04-15T06:14:55;98985.66;;;9.13;100.00
77299;BME280;66361;52.034;20.656;2023-04-15T06:19:02;98997.75;;;9.16;100.00
77299;BME280;66361;52.034;20.656;2023-04-15T06:23:05;99003.94;;;9.15;100.00
77299;BME280;66361;52.034;20.656;2023-04-15T06:27:08;99004.78;;;9.15;100.00
77299;BME280;66361;52.034;20.656;2023-04-15T06:31:13;99002.75;;;9.19;100.00
77299;BME280;66361;52.034;20.656;2023-04-15T06:35:17;99007.09;;;9.20;100.00
77299;BME280;66361;52.034;20.656;2023-04-15T06:39:20;99011.41;;;9.21;100.00
77299;BME280;66361;52.034;20.656;2023-04-15T06:43:23;99006.00;;;9.22;100.00
77299;BME280;66361;52.034;20.656;2023-04-15T06:47:26;99006.94;;;9.21;100.00
77299;BME280;66361;52.034;20.656;2023-04-15T06:51:31;99011.28;;;9.22;100.00
77299;BME280;66361;52.034;20.656;2023-04-15T06:55:34;99013.47;;;9.29;100.00
77299;BME280;66361;52.034;20.656;2023-04-15T06:59:38;99013.47;;;9.29;100.00
77299;BME280;66361;52.034;20.656;2023-04-15T07:03:41;99021.16;;;9.32;100.00
77299;BME280;66361;52.034;20.656;2023-04-15T07:07:45;99024.00;;;9.29;100.00
77299;BME280;66361;52.034;20.656;2023-04-15T07:11:48;99027.97;;;9.34;100.00
77299;BME280;66361;52.034;20.656;2023-04-15T07:15:51;99041.75;;;9.38;100.00
77299;BME280;66361;52.034;20.656;2023-04-15T07:19:55;99034.31;;;9.32;100.00
77299;BME280;66361;52.034;20.656;2023-04-15T07:23:59;99038.00;;;9.29;100.00
77299;BME280;66361;52.034;20.656;2023-04-15T07:28:05;99034.94;;;9.35;100.00
77299;BME280;66361;52.034;20.656;2023-04-15T07:32:11;99038.03;;;9.40;100.00
77299;BME280;66361;52.034;20.656;2023-04-15T07:36:17;99036.97;;;9.43;100.00
77299;BME280;66361;52.034;20.656;2023-04-15T07:40:21;99033.16;;;9.47;100.00
77299;BME280;66361;52.034;20.656;2023-04-15T07:44:25;99036.16;;;9.53;100.00
77299;BME280;66361;52.034;20.656;2023-04-15T07:48:28;99029.94;;;9.54;100.00
77299;BME280;66361;52.034;20.656;2023-04-15T07:52:32;99029.09;;;9.54;100.00
77299;BME280;66361;52.034;20.656;2023-04-15T07:56:41;99042.97;;;9.56;100.00
77299;BME280;66361;52.034;20.656;2023-04-15T08:00:44;99043.13;;;9.54;100.00
77299;BME280;66361;52.034;20.656;2023-04-15T08:04:47;99040.09;;;9.59;100.00
77299;BME280;66361;52.034;20.656;2023-04-15T08:08:50;99042.16;;;9.66;100.00
77299;BME280;66361;52.034;20.656;2023-04-15T08:12:57;99038.91;;;9.63;100.00
77299;BME280;66361;52.034;20.656;2023-04-15T08:17:00;99032.59;;;9.65;100.00
77299;BME280;66361;52.034;20.656;2023-04-15T08:21:04;99038.59;;;9.79;100.00
77299;BME280;66361;52.034;20.656;2023-04-15T08:25:09;99033.47;;;9.88;100.00
77299;BME280;66361;52.034;20.656;2023-04-15T08:29:14;99031.28;;;9.93;100.00
77299;BME280;66361;52.034;20.656;2023-04-15T08:33:16;99041.22;;;10.01;100.00
77299;BME280;66361;52.034;20.656;2023-04-15T08:37:20;99039.31;;;10.03;100.00
77299;BME280;66361;52.034;20.656;2023-04-15T08:41:24;99052.38;;;10.04;100.00
77299;BME280;66361;52.034;20.656;2023-04-15T08:45:29;99037.66;;;10.02;100.00
77299;BME280;66361;52.034;20.656;2023-04-15T08:49:33;99039.53;;;10.00;100.00
77299;BME280;66361;52.034;20.656;2023-04-15T08:53:37;99043.16;;;10.10;100.00
77299;BME280;66361;52.034;20.656;2023-04-15T08:57:41;99052.59;;;10.23;100.00
77299;BME280;66361;52.034;20.656;2023-04-15T09:01:47;99050.91;;;10.34;100.00
77299;BME280;66361;52.034;20.656;2023-04-15T09:05:52;99049.59;;;10.39;100.00
77299;BME280;66361;52.034;20.656;2023-04-15T09:09:55;99059.44;;;10.48;100.00
77299;BME280;66361;52.034;20.656;2023-04-15T09:13:59;99053.66;;;10.54;100.00
77299;BME280;66361;52.034;20.656;2023-04-15T09:18:03;99058.09;;;10.43;100.00
77299;BME280;66361;52.034;20.656;2023-04-15T09:22:06;99056.81;;;10.37;100.00
77299;BME280;66361;52.034;20.656;2023-04-15T09:26:11;99054.03;;;10.28;100.00
77299;BME280;66361;52.034;20.656;2023-04-15T09:30:15;99055.84;;;10.38;100.00
77299;BME280;66361;52.034;20.656;2023-04-15T09:34:34;99061.22;;;10.48;100.00
77299;BME280;66361;52.034;20.656;2023-04-15T09:38:53;99066.22;;;10.62;100.00
77299;BME280;66361;52.034;20.656;2023-04-15T09:42:57;99071.78;;;10.91;100.00
77299;BME280;66361;52.034;20.656;2023-04-15T09:47:02;99074.66;;;10.99;100.00
77299;BME280;66361;52.034;20.656;2023-04-15T09:51:06;99080.63;;;11.23;100.00
77299;BME280;66361;52.034;20.656;2023-04-15T09:55:10;99082.09;;;11.37;100.00
77299;BME280;66361;52.034;20.656;2023-04-15T09:59:15;99091.56;;;11.39;98.18
77299;BME280;66361;52.034;20.656;2023-04-15T10:03:22;99084.75;;;11.37;96.84
77299;BME280;66361;52.034;20.656;2023-04-15T10:07:27;99084.03;;;11.35;99.01
77299;BME280;66361;52.034;20.656;2023-04-15T10:11:32;99094.09;;;11.41;97.63
77299;BME280;66361;52.034;20.656;2023-04-15T10:15:39;99095.09;;;11.29;97.93
77299;BME280;66361;52.034;20.656;2023-04-15T10:19:44;99086.69;;;11.24;98.46
77299;BME280;66361;52.034;20.656;2023-04-15T10:23:49;99090.06;;;11.26;99.16
77299;BME280;66361;52.034;20.656;2023-04-15T10:27:55;99095.25;;;11.27;98.08
77299;BME280;66361;52.034;20.656;2023-04-15T10:32:00;99100.34;;;11.40;99.96
77299;BME280;66361;52.034;20.656;2023-04-15T10:36:04;99095.31;;;11.57;99.23
77299;BME280;66361;52.034;20.656;2023-04-15T10:40:27;99098.75;;;11.90;98.67
77299;BME280;66361;52.034;20.656;2023-04-15T10:44:32;99091.81;;;12.29;95.12
77299;BME280;66361;52.034;20.656;2023-04-15T10:48:35;99092.69;;;12.69;92.21
77299;BME280;66361;52.034;20.656;2023-04-15T10:52:41;99093.19;;;12.93;89.32
77299;BME280;66361;52.034;20.656;2023-04-15T10:56:45;99094.88;;;12.94;85.96
77299;BME280;66361;52.034;20.656;2023-04-15T11:00:52;99101.16;;;13.03;89.97
77299;BME280;66361;52.034;20.656;2023-04-15T11:04:56;99098.31;;;12.85;84.42
77299;BME280;66361;52.034;20.656;2023-04-15T11:09:01;99100.19;;;12.54;86.23
77299;BME280;66361;52.034;20.656;2023-04-15T11:13:16;99093.41;;;12.31;89.72
77299;BME280;66361;52.034;20.656;2023-04-15T11:17:26;99099.00;;;12.47;89.11
77299;BME280;66361;52.034;20.656;2023-04-15T11:21:31;99098.19;;;12.47;84.83
77299;BME280;66361;52.034;20.656;2023-04-15T11:25:37;99107.94;;;12.16;91.07
77299;BME280;66361;52.034;20.656;2023-04-15T11:29:41;99110.66;;;11.84;94.25
77299;BME280;66361;52.034;20.656;2023-04-15T11:33:46;99120.47;;;11.73;95.40
77299;BME280;66361;52.034;20.656;2023-04-15T11:37:49;99115.00;;;11.85;94.12
77299;BME280;66361;52.034;20.656;2023-04-15T11:41:52;99110.09;;;12.01;92.88
77299;BME280;66361;52.034;20.656;2023-04-15T11:45:57;99116.06;;;12.24;90.92
77299;BME280;66361;52.034;20.656;2023-04-15T11:50:13;99111.09;;;12.40;86.75
77299;BME280;66361;52.034;20.656;2023-04-15T11:54:18;99117.13;;;12.82;89.04
77299;BME280;66361;52.034;20.656;2023-04-15T11:58:22;99112.47;;;13.24;87.49
77299;BME280;66361;52.034;20.656;2023-04-15T12:02:31;99121.84;;;13.47;85.05
77299;BME280;66361;52.034;20.656;2023-04-15T12:06:34;99131.69;;;13.07;76.90
77299;BME280;66361;52.034;20.656;2023-04-15T12:10:39;99131.38;;;12.91;80.46
77299;BME280;66361;52.034;20.656;2023-04-15T12:14:44;99139.91;;;13.04;86.07
77299;BME280;66361;52.034;20.656;2023-04-15T12:18:51;99141.22;;;13.29;79.77
77299;BME280;66361;52.034;20.656;2023-04-15T12:23:06;99147.34;;;13.39;74.57
77299;BME280;66361;52.034;20.656;2023-04-15T12:27:11;99142.75;;;13.60;72.92
77299;BME280;66361;52.034;20.656;2023-04-15T12:31:15;99140.78;;;13.72;72.75
77299;BME280;66361;52.034;20.656;2023-04-15T12:35:19;99132.91;;;14.28;75.59
77299;BME280;66361;52.034;20.656;2023-04-15T12:39:23;99129.22;;;14.75;70.75
77299;BME280;66361;52.034;20.656;2023-04-15T12:43:30;99135.31;;;14.85;66.92
77299;BME280;66361;52.034;20.656;2023-04-15T12:47:53;99141.56;;;14.94;70.61
77299;BME280;66361;52.034;20.656;2023-04-15T12:51:58;99147.72;;;14.94;68.95
77299;BME280;66361;52.034;20.656;2023-04-15T12:56:02;99142.75;;;15.09;64.31
77299;BME280;66361;52.034;20.656;2023-04-15T13:00:06;99145.88;;;14.95;65.72
77299;BME280;66361;52.034;20.656;2023-04-15T13:04:10;99138.38;;;14.90;65.93
77299;BME280;66361;52.034;20.656;2023-04-15T13:08:17;99143.19;;;15.04;67.85
77299;BME280;66361;52.034;20.656;2023-04-15T13:12:29;99148.50;;;15.04;62.35
77299;BME280;66361;52.034;20.656;2023-04-15T13:16:33;99157.84;;;14.81;63.49
77299;BME280;66361;52.034;20.656;2023-04-15T13:20:37;99175.84;;;14.50;65.81
77299;BME280;66361;52.034;20.656;2023-04-15T13:24:42;99187.06;;;14.35;61.99
77299;BME280;66361;52.034;20.656;2023-04-15T13:28:46;99177.06;;;13.90;62.75
77299;BME280;66361;52.034;20.656;2023-04-15T13:32:49;99182.13;;;13.74;65.74
77299;BME280;66361;52.034;20.656;2023-04-15T13:36:52;99190.47;;;13.89;67.27
77299;BME280;66361;52.034;20.656;2023-04-15T13:40:57;99184.06;;;13.82;65.67
77299;BME280;66361;52.034;20.656;2023-04-15T13:45:03;99193.97;;;13.80;65.16
77299;BME280;66361;52.034;20.656;2023-04-15T13:49:09;99192.03;;;13.82;64.43
77299;BME280;66361;52.034;20.656;2023-04-15T13:53:13;99202.50;;;13.93;64.27
77299;BME280;66361;52.034;20.656;2023-04-15T13:57:17;99188.69;;;13.89;63.15
77299;BME280;66361;52.034;20.656;2023-04-15T14:01:20;99198.59;;;13.97;63.55
77299;BME280;66361;52.034;20.656;2023-04-15T14:05:24;99191.16;;;14.29;60.28
77299;BME280;66361;52.034;20.656;2023-04-15T14:09:29;99190.81;;;14.51;61.90
77299;BME280;66361;52.034;20.656;2023-04-15T14:13:33;99191.38;;;14.55;63.49
77299;BME280;66361;52.034;20.656;2023-04-15T14:17:37;99198.66;;;14.53;61.64
77299;BME280;66361;52.034;20.656;2023-04-15T14:21:40;99192.81;;;14.40;62.29
77299;BME280;66361;52.034;20.656;2023-04-15T14:25:46;99194.47;;;14.41;62.64
77299;BME280;66361;52.034;20.656;2023-04-15T14:29:50;99197.69;;;14.44;63.74
77299;BME280;66361;52.034;20.656;2023-04-15T14:33:54;99191.31;;;14.18;64.62
77299;BME280;66361;52.034;20.656;2023-04-15T14:37:58;99191.44;;;13.97;64.84
77299;BME280;66361;52.034;20.656;2023-04-15T14:42:01;99192.03;;;13.82;65.38
77299;BME280;66361;52.034;20.656;2023-04-15T14:46:08;99189.78;;;13.68;65.67
77299;BME280;66361;52.034;20.656;2023-04-15T14:50:11;99202.91;;;13.59;66.56
77299;BME280;66361;52.034;20.656;2023-04-15T14:54:18;99216.28;;;13.58;66.07
77299;BME280;66361;52.034;20.656;2023-04-15T14:58:22;99215.84;;;13.53;67.60
77299;BME280;66361;52.034;20.656;2023-04-15T15:02:29;99224.94;;;13.50;68.62
77299;BME280;66361;52.034;20.656;2023-04-15T15:06:40;99233.28;;;13.46;67.53
77299;BME280;66361;52.034;20.656;2023-04-15T15:10:43;99250.69;;;13.29;68.15
77299;BME280;66361;52.034;20.656;2023-04-15T15:14:50;99245.91;;;13.14;71.21
77299;BME280;66361;52.034;20.656;2023-04-15T15:18:56;99251.03;;;13.05;71.40
77299;BME280;66361;52.034;20.656;2023-04-15T15:22:59;99243.78;;;13.07;72.64
77299;BME280;66361;52.034;20.656;2023-04-15T15:27:02;99237.78;;;13.05;73.87
77299;BME280;66361;52.034;20.656;2023-04-15T15:31:05;99240.41;;;12.96;75.31
77299;BME280;66361;52.034;20.656;2023-04-15T15:35:13;99251.34;;;12.82;76.96
77299;BME280;66361;52.034;20.656;2023-04-15T15:39:16;99244.31;;;12.50;78.31
77299;BME280;66361;52.034;20.656;2023-04-15T15:43:20;99241.94;;;12.27;78.51
77299;BME280;66361;52.034;20.656;2023-04-15T15:47:24;99247.97;;;12.18;78.13
77299;BME280;66361;52.034;20.656;2023-04-15T15:51:29;99256.38;;;12.23;78.17
77299;BME280;66361;52.034;20.656;2023-04-15T15:55:33;99250.44;;;12.30;76.85
77299;BME280;66361;52.034;20.656;2023-04-15T15:59:39;99257.50;;;12.20;77.06
77299;BME280;66361;52.034;20.656;2023-04-15T16:03:44;99259.19;;;12.10;77.11
77299;BME280;66361;52.034;20.656;2023-04-15T16:07:48;99263.00;;;11.96;78.43
77299;BME280;66361;52.034;20.656;2023-04-15T16:11:53;99268.22;;;11.87;79.07
77299;BME280;66361;52.034;20.656;2023-04-15T16:15:58;99272.25;;;12.02;79.18
77299;BME280;66361;52.034;20.656;2023-04-15T16:20:01;99284.38;;;12.25;77.41
77299;BME280;66361;52.034;20.656;2023-04-15T16:24:08;99285.75;;;12.40;77.46
77299;BME280;66361;52.034;20.656;2023-04-15T16:28:11;99292.72;;;12.41;77.47
77299;BME280;66361;52.034;20.656;2023-04-15T16:32:27;99288.19;;;12.32;78.78
77299;BME280;66361;52.034;20.656;2023-04-15T16:36:30;99292.00;;;12.19;79.45
77299;BME280;66361;52.034;20.656;2023-04-15T16:40:35;99287.28;;;12.01;80.51
77299;BME280;66361;52.034;20.656;2023-04-15T16:44:42;99298.25;;;11.86;81.44
77299;BME280;66361;52.034;20.656;2023-04-15T16:48:44;99306.69;;;11.80;81.48
77299;BME280;66361;52.034;20.656;2023-04-15T16:52:48;99305.88;;;11.68;81.58
77299;BME280;66361;52.034;20.656;2023-04-15T16:56:55;99311.66;;;11.62;81.60
77299;BME280;66361;52.034;20.656;2023-04-15T17:00:59;99319.13;;;11.57;82.21
77299;BME280;66361;52.034;20.656;2023-04-15T17:05:02;99331.13;;;11.50;83.35
77299;BME280;66361;52.034;20.656;2023-04-15T17:09:04;99323.34;;;11.37;84.14
77299;BME280;66361;52.034;20.656;2023-04-15T17:13:11;99330.69;;;11.23;85.12
77299;BME280;66361;52.034;20.656;2023-04-15T17:17:14;99346.28;;;11.14;84.19
77299;BME280;66361;52.034;20.656;2023-04-15T17:21:21;99344.78;;;10.99;85.43
77299;BME280;66361;52.034;20.656;2023-04-15T17:25:24;99352.81;;;10.87;86.05
77299;BME280;66361;52.034;20.656;2023-04-15T17:29:29;99347.16;;;10.80;86.10
77299;BME280;66361;52.034;20.656;2023-04-15T17:33:32;99356.16;;;10.66;86.72
77299;BME280;66361;52.034;20.656;2023-04-15T17:37:55;99359.22;;;10.60;88.05
77299;BME280;66361;52.034;20.656;2023-04-15T17:42:02;99368.25;;;10.69;87.61
77299;BME280;66361;52.034;20.656;2023-04-15T17:46:06;99375.22;;;10.70;87.78
77299;BME280;66361;52.034;20.656;2023-04-15T17:50:10;99384.59;;;10.74;87.77
77299;BME280;66361;52.034;20.656;2023-04-15T17:54:13;99399.22;;;10.67;89.89
77299;BME280;66361;52.034;20.656;2023-04-15T17:58:16;99392.34;;;10.64;90.82
77299;BME280;66361;52.034;20.656;2023-04-15T18:02:25;99399.28;;;10.54;91.43
77299;BME280;66361;52.034;20.656;2023-04-15T18:06:30;99411.97;;;10.49;93.05
77299;BME280;66361;52.034;20.656;2023-04-15T18:10:33;99415.91;;;10.44;96.17
77299;BME280;66361;52.034;20.656;2023-04-15T18:14:40;99412.97;;;10.36;97.82
77299;BME280;66361;52.034;20.656;2023-04-15T18:18:46;99418.25;;;10.12;98.78
77299;BME280;66361;52.034;20.656;2023-04-15T18:22:49;99426.34;;;9.85;96.37
77299;BME280;66361;52.034;20.656;2023-04-15T18:26:53;99432.81;;;9.56;98.86
77299;BME280;66361;52.034;20.656;2023-04-15T18:30:57;99443.06;;;9.35;100.00
77299;BME280;66361;52.034;20.656;2023-04-15T18:35:01;99434.28;;;9.22;100.00
77299;BME280;66361;52.034;20.656;2023-04-15T18:39:08;99454.00;;;9.16;100.00
77299;BME280;66361;52.034;20.656;2023-04-15T18:43:11;99453.53;;;9.10;100.00
77299;BME280;66361;52.034;20.656;2023-04-15T18:47:15;99460.09;;;9.04;100.00
77299;BME280;66361;52.034;20.656;2023-04-15T18:51:20;99461.16;;;9.02;100.00
77299;BME280;66361;52.034;20.656;2023-04-15T18:55:24;99479.66;;;9.00;100.00
77299;BME280;66361;52.034;20.656;2023-04-15T18:59:33;99480.94;;;8.95;100.00
77299;BME280;66361;52.034;20.656;2023-04-15T19:03:36;99485.44;;;8.93;100.00
77299;BME280;66361;52.034;20.656;2023-04-15T19:07:41;99488.38;;;8.88;100.00
77299;BME280;66361;52.034;20.656;2023-04-15T19:11:45;99499.00;;;8.87;100.00
77299;BME280;66361;52.034;20.656;2023-04-15T19:15:47;99497.31;;;8.86;100.00
77299;BME280;66361;52.034;20.656;2023-04-15T19:19:51;99508.13;;;8.81;100.00
77299;BME280;66361;52.034;20.656;2023-04-15T19:23:56;99510.69;;;8.83;100.00
77299;BME280;66361;52.034;20.656;2023-04-15T19:28:00;99506.34;;;8.82;100.00
77299;BME280;66361;52.034;20.656;2023-04-15T19:32:04;99515.81;;;8.84;100.00
77299;BME280;66361;52.034;20.656;2023-04-15T19:36:07;99516.56;;;8.86;100.00
77299;BME280;66361;52.034;20.656;2023-04-15T19:40:16;99522.69;;;8.87;100.00
77299;BME280;66361;52.034;20.656;2023-04-15T19:44:19;99524.25;;;8.89;100.00
77299;BME280;66361;52.034;20.656;2023-04-15T19:48:23;99522.47;;;8.90;100.00
77299;BME280;66361;52.034;20.656;2023-04-15T19:52:27;99519.72;;;8.91;100.00
77299;BME280;66361;52.034;20.656;2023-04-15T19:56:31;99519.72;;;8.91;100.00
77299;BME280;66361;52.034;20.656;2023-04-15T20:00:35;99526.97;;;8.88;100.00
77299;BME280;66361;52.034;20.656;2023-04-15T20:04:39;99524.47;;;8.86;100.00
77299;BME280;66361;52.034;20.656;2023-04-15T20:08:43;99527.84;;;8.88;100.00
77299;BME280;66361;52.034;20.656;2023-04-15T20:12:47;99530.38;;;8.90;100.00
77299;BME280;66361;52.034;20.656;2023-04-15T20:16:55;99526.06;;;8.89;100.00
77299;BME280;66361;52.034;20.656;2023-04-15T20:20:59;99529.81;;;8.85;100.00
77299;BME280;66361;52.034;20.656;2023-04-15T20:25:02;99534.34;;;8.83;100.00
77299;BME280;66361;52.034;20.656;2023-04-15T20:29:09;99528.34;;;8.81;100.00
77299;BME280;66361;52.034;20.656;2023-04-15T20:33:13;99531.94;;;8.80;100.00
77299;BME280;66361;52.034;20.656;2023-04-15T20:37:19;99528.53;;;8.77;100.00
77299;BME280;66361;52.034;20.656;2023-04-15T20:41:25;99532.66;;;8.82;100.00
77299;BME280;66361;52.034;20.656;2023-04-15T20:45:29;99534.75;;;8.76;100.00
77299;BME280;66361;52.034;20.656;2023-04-15T20:49:32;99541.13;;;8.72;100.00
77299;BME280;66361;52.034;20.656;2023-04-15T20:53:36;99543.25;;;8.67;100.00
77299;BME280;66361;52.034;20.656;2023-04-15T20:57:39;99550.94;;;8.70;100.00
77299;BME280;66361;52.034;20.656;2023-04-15T21:01:44;99550.09;;;8.70;100.00
77299;BME280;66361;52.034;20.656;2023-04-15T21:05:47;99547.56;;;8.68;100.00
77299;BME280;66361;52.034;20.656;2023-04-15T21:09:51;99556.94;;;8.72;100.00
77299;BME280;66361;52.034;20.656;2023-04-15T21:13:55;99566.06;;;8.67;100.00
77299;BME280;66361;52.034;20.656;2023-04-15T21:18:05;99562.38;;;8.69;100.00